sensor_id;sensor_type;location;lat;lon;timestamp;P1;durP1;ratioP1;P2;durP2;ratioP2
3781;SDS011;6881;49.962;7.718;2022-08-21T00:01:09;6.70;;;4.13;;
3781;SDS011;6881;49.962;7.718;2022-08-21T00:03:38;3.70;;;3.37;;
3781;SDS011;6881;49.962;7.718;2022-08-21T00:06:03;7.80;;;3.43;;
3781;SDS011;6881;49.962;7.718;2022-08-21T00:08:29;5.90;;;3.43;;
3781;SDS011;6881;49.962;7.718;2022-08-21T00:10:54;4.50;;;3.57;;
3781;SDS011;6881;49.962;7.718;2022-08-21T00:13:20;5.97;;;3.33;;
3781;SDS011;6881;49.962;7.718;2022-08-21T00:15:46;4.70;;;3.57;;
3781;SDS011;6881;49.962;7.718;2022-08-21T00:18:12;6.47;;;4.37;;
3781;SDS011;6881;49.962;7.718;2022-08-21T00:20:39;4.40;;;3.50;;
3781;SDS011;6881;49.962;7.718;2022-08-21T00:23:05;5.40;;;3.93;;
3781;SDS011;6881;49.962;7.718;2022-08-21T00:25:31;8.83;;;4.60;;
3781;SDS011;6881;49.962;7.718;2022-08-21T00:27:57;4.57;;;3.50;;
3781;SDS011;6881;49.962;7.718;2022-08-21T00:30:23;4.27;;;3.70;;
3781;SDS011;6881;49.962;7.718;2022-08-21T00:32:49;4.50;;;3.97;;
3781;SDS011;6881;49.962;7.718;2022-08-21T00:35:17;7.67;;;4.97;;
3781;SDS011;6881;49.962;7.718;2022-08-21T00:37:43;6.43;;;3.87;;
3781;SDS011;6881;49.962;7.718;2022-08-21T00:40:11;6.83;;;3.67;;
3781;SDS011;6881;49.962;7.718;2022-08-21T00:42:39;5.47;;;4.00;;
3781;SDS011;6881;49.962;7.718;2022-08-21T00:45:05;5.10;;;3.93;;
3781;SDS011;6881;49.962;7.718;2022-08-21T00:47:31;5.57;;;3.77;;
3781;SDS011;6881;49.962;7.718;2022-08-21T00:49:56;5.03;;;3.63;;
3781;SDS011;6881;49.962;7.718;2022-08-21T00:52:25;4.87;;;4.40;;
3781;SDS011;6881;49.962;7.718;2022-08-21T00:54:54;5.27;;;4.20;;
3781;SDS011;6881;49.962;7.718;2022-08-21T00:57:22;4.60;;;3.63;;
3781;SDS011;6881;49.962;7.718;2022-08-21T00:59:51;4.20;;;3.67;;
3781;SDS011;6881;49.962;7.718;2022-08-21T01:02:19;4.30;;;3.90;;
3781;SDS011;6881;49.962;7.718;2022-08-21T01:04:46;6.73;;;5.00;;
3781;SDS011;6881;49.962;7.718;2022-08-21T01:07:11;5.67;;;4.77;;
3781;SDS011;6881;49.962;7.718;2022-08-21T01:09:38;6.40;;;4.17;;
3781;SDS011;6881;49.962;7.718;2022-08-21T01:12:03;8.00;;;4.30;;
3781;SDS011;6881;49.962;7.718;2022-08-21T01:14:29;6.40;;;4.20;;
3781;SDS011;6881;49.962;7.718;2022-08-21T01:16:55;5.37;;;4.17;;
3781;SDS011;6881;49.962;7.718;2022-08-21T01:19:22;4.50;;;4.10;;
3781;SDS011;6881;49.962;7.718;2022-08-21T01:21:48;5.30;;;4.37;;
3781;SDS011;6881;49.962;7.718;2022-08-21T01:24:14;8.33;;;4.60;;
3781;SDS011;6881;49.962;7.718;2022-08-21T01:26:39;6.97;;;5.20;;
3781;SDS011;6881;49.962;7.718;2022-08-21T01:29:11;7.37;;;4.90;;
3781;SDS011;6881;49.962;7.718;2022-08-21T01:31:39;5.73;;;4.33;;
3781;SDS011;6881;49.962;7.718;2022-08-21T01:34:04;7.70;;;4.37;;
3781;SDS011;6881;49.962;7.718;2022-08-21T01:36:30;5.93;;;4.10;;
3781;SDS011;6881;49.962;7.718;2022-08-21T01:38:56;5.20;;;4.20;;
3781;SDS011;6881;49.962;7.718;2022-08-21T01:41:21;5.20;;;4.07;;
3781;SDS011;6881;49.962;7.718;2022-08-21T01:43:47;5.67;;;5.10;;
3781;SDS011;6881;49.962;7.718;2022-08-21T01:46:12;8.60;;;4.63;;
3781;SDS011;6881;49.962;7.718;2022-08-21T01:48:39;6.73;;;4.00;;
3781;SDS011;6881;49.962;7.718;2022-08-21T01:51:05;5.33;;;4.03;;
3781;SDS011;6881;49.962;7.718;2022-08-21T01:53:30;6.30;;;4.63;;
3781;SDS011;6881;49.962;7.718;2022-08-21T01:55:58;4.80;;;4.30;;
3781;SDS011;6881;49.962;7.718;2022-08-21T01:58:24;5.10;;;4.47;;
3781;SDS011;6881;49.962;7.718;2022-08-21T02:00:50;5.37;;;4.53;;
3781;SDS011;6881;49.962;7.718;2022-08-21T02:03:15;7.27;;;4.80;;
3781;SDS011;6881;49.962;7.718;2022-08-21T02:05:40;5.23;;;3.87;;
3781;SDS011;6881;49.962;7.718;2022-08-21T02:08:06;6.77;;;4.27;;
3781;SDS011;6881;49.962;7.718;2022-08-21T02:10:32;6.43;;;4.37;;
3781;SDS011;6881;49.962;7.718;2022-08-21T02:12:58;10.30;;;5.10;;
3781;SDS011;6881;49.962;7.718;2022-08-21T02:15:25;8.60;;;4.80;;
3781;SDS011;6881;49.962;7.718;2022-08-21T02:17:53;5.20;;;4.00;;
3781;SDS011;6881;49.962;7.718;2022-08-21T02:20:40;7.17;;;4.90;;
3781;SDS011;6881;49.962;7.718;2022-08-21T02:23:07;5.33;;;4.70;;
3781;SDS011;6881;49.962;7.718;2022-08-21T02:25:34;6.23;;;5.20;;
3781;SDS011;6881;49.962;7.718;2022-08-21T02:28:01;5.57;;;4.27;;
3781;SDS011;6881;49.962;7.718;2022-08-21T02:30:30;5.73;;;4.93;;
3781;SDS011;6881;49.962;7.718;2022-08-21T02:32:57;7.93;;;5.07;;
3781;SDS011;6881;49.962;7.718;2022-08-21T02:35:23;5.27;;;4.43;;
3781;SDS011;6881;49.962;7.718;2022-08-21T02:37:53;7.20;;;5.73;;
3781;SDS011;6881;49.962;7.718;2022-08-21T02:40:22;8.30;;;5.30;;
3781;SDS011;6881;49.962;7.718;2022-08-21T02:42:50;8.07;;;5.07;;
3781;SDS011;6881;49.962;7.718;2022-08-21T02:45:16;6.30;;;5.17;;
3781;SDS011;6881;49.962;7.718;2022-08-21T02:47:55;7.50;;;5.20;;
3781;SDS011;6881;49.962;7.718;2022-08-21T02:50:24;6.27;;;5.00;;
3781;SDS011;6881;49.962;7.718;2022-08-21T02:52:54;8.40;;;4.50;;
3781;SDS011;6881;49.962;7.718;2022-08-21T02:55:20;8.17;;;4.87;;
3781;SDS011;6881;49.962;7.718;2022-08-21T02:57:47;6.57;;;5.97;;
3781;SDS011;6881;49.962;7.718;2022-08-21T03:00:13;7.77;;;5.80;;
3781;SDS011;6881;49.962;7.718;2022-08-21T03:02:39;7.27;;;5.30;;
3781;SDS011;6881;49.962;7.718;2022-08-21T03:05:06;9.57;;;4.97;;
3781;SDS011;6881;49.962;7.718;2022-08-21T03:07:33;8.27;;;5.07;;
3781;SDS011;6881;49.962;7.718;2022-08-21T03:09:59;6.73;;;4.90;;
3781;SDS011;6881;49.962;7.718;2022-08-21T03:12:25;11.23;;;4.97;;
3781;SDS011;6881;49.962;7.718;2022-08-21T03:14:50;8.00;;;5.57;;
3781;SDS011;6881;49.962;7.718;2022-08-21T03:17:16;7.40;;;5.20;;
3781;SDS011;6881;49.962;7.718;2022-08-21T03:19:41;7.13;;;5.30;;
3781;SDS011;6881;49.962;7.718;2022-08-21T03:22:07;7.50;;;6.50;;
3781;SDS011;6881;49.962;7.718;2022-08-21T03:24:32;6.03;;;5.10;;
3781;SDS011;6881;49.962;7.718;2022-08-21T03:26:58;7.67;;;5.07;;
3781;SDS011;6881;49.962;7.718;2022-08-21T03:29:23;6.63;;;5.10;;
3781;SDS011;6881;49.962;7.718;2022-08-21T03:31:48;6.83;;;5.23;;
3781;SDS011;6881;49.962;7.718;2022-08-21T03:34:14;6.20;;;5.60;;
3781;SDS011;6881;49.962;7.718;2022-08-21T03:36:39;6.73;;;5.40;;
3781;SDS011;6881;49.962;7.718;2022-08-21T03:39:05;7.83;;;6.17;;
3781;SDS011;6881;49.962;7.718;2022-08-21T03:41:30;10.53;;;6.27;;
3781;SDS011;6881;49.962;7.718;2022-08-21T03:43:55;9.60;;;6.10;;
3781;SDS011;6881;49.962;7.718;2022-08-21T03:46:21;6.33;;;5.13;;
3781;SDS011;6881;49.962;7.718;2022-08-21T03:48:46;8.60;;;5.80;;
3781;SDS011;6881;49.962;7.718;2022-08-21T03:51:12;8.07;;;5.17;;
3781;SDS011;6881;49.962;7.718;2022-08-21T03:53:37;7.70;;;5.73;;
3781;SDS011;6881;49.962;7.718;2022-08-21T03:56:03;9.80;;;5.67;;
3781;SDS011;6881;49.962;7.718;2022-08-21T03:58:30;9.10;;;5.83;;
3781;SDS011;6881;49.962;7.718;2022-08-21T04:00:57;11.03;;;5.10;;
3781;SDS011;6881;49.962;7.718;2022-08-21T04:03:24;7.20;;;5.70;;
3781;SDS011;6881;49.962;7.718;2022-08-21T04:05:50;8.33;;;6.00;;
3781;SDS011;6881;49.962;7.718;2022-08-21T04:08:16;5.57;;;5.00;;
3781;SDS011;6881;49.962;7.718;2022-08-21T04:10:44;11.70;;;5.10;;
3781;SDS011;6881;49.962;7.718;2022-08-21T04:13:10;6.47;;;5.23;;
3781;SDS011;6881;49.962;7.718;2022-08-21T04:15:36;6.60;;;5.80;;
3781;SDS011;6881;49.962;7.718;2022-08-21T04:18:01;6.93;;;6.00;;
3781;SDS011;6881;49.962;7.718;2022-08-21T04:20:27;7.10;;;5.70;;
3781;SDS011;6881;49.962;7.718;2022-08-21T04:22:53;6.60;;;5.90;;
3781;SDS011;6881;49.962;7.718;2022-08-21T04:25:19;8.83;;;5.97;;
3781;SDS011;6881;49.962;7.718;2022-08-21T04:27:46;6.87;;;5.80;;
3781;SDS011;6881;49.962;7.718;2022-08-21T04:30:12;6.60;;;6.07;;
3781;SDS011;6881;49.962;7.718;2022-08-21T04:32:38;9.70;;;5.73;;
3781;SDS011;6881;49.962;7.718;2022-08-21T04:35:05;7.70;;;5.67;;
3781;SDS011;6881;49.962;7.718;2022-08-21T04:37:32;7.93;;;6.17;;
3781;SDS011;6881;49.962;7.718;2022-08-21T04:39:57;8.07;;;7.13;;
3781;SDS011;6881;49.962;7.718;2022-08-21T04:42:24;7.17;;;6.47;;
3781;SDS011;6881;49.962;7.718;2022-08-21T04:44:50;8.67;;;7.47;;
3781;SDS011;6881;49.962;7.718;2022-08-21T04:47:16;8.73;;;6.53;;
3781;SDS011;6881;49.962;7.718;2022-08-21T04:49:42;10.20;;;6.63;;
3781;SDS011;6881;49.962;7.718;2022-08-21T04:52:08;11.80;;;7.43;;
3781;SDS011;6881;49.962;7.718;2022-08-21T04:54:33;8.50;;;6.37;;
3781;SDS011;6881;49.962;7.718;2022-08-21T04:57:47;8.00;;;7.17;;
3781;SDS011;6881;49.962;7.718;2022-08-21T05:00:12;7.60;;;5.93;;
3781;SDS011;6881;49.962;7.718;2022-08-21T05:02:39;10.03;;;6.70;;
3781;SDS011;6881;49.962;7.718;2022-08-21T05:05:05;9.90;;;7.20;;
3781;SDS011;6881;49.962;7.718;2022-08-21T05:07:31;7.77;;;6.97;;
3781;SDS011;6881;49.962;7.718;2022-08-21T05:09:57;7.03;;;6.33;;
3781;SDS011;6881;49.962;7.718;2022-08-21T05:12:24;8.70;;;6.30;;
3781;SDS011;6881;49.962;7.718;2022-08-21T05:14:49;7.37;;;6.53;;
3781;SDS011;6881;49.962;7.718;2022-08-21T05:17:15;6.43;;;5.83;;
3781;SDS011;6881;49.962;7.718;2022-08-21T05:19:40;8.83;;;7.20;;
3781;SDS011;6881;49.962;7.718;2022-08-21T05:22:05;8.80;;;6.20;;
3781;SDS011;6881;49.962;7.718;2022-08-21T05:24:31;9.13;;;7.00;;
3781;SDS011;6881;49.962;7.718;2022-08-21T05:26:57;9.30;;;6.70;;
3781;SDS011;6881;49.962;7.718;2022-08-21T05:29:22;8.40;;;6.13;;
3781;SDS011;6881;49.962;7.718;2022-08-21T05:31:48;11.10;;;6.83;;
3781;SDS011;6881;49.962;7.718;2022-08-21T05:34:14;9.37;;;5.93;;
3781;SDS011;6881;49.962;7.718;2022-08-21T05:36:43;11.30;;;6.77;;
3781;SDS011;6881;49.962;7.718;2022-08-21T05:39:09;6.60;;;5.90;;
3781;SDS011;6881;49.962;7.718;2022-08-21T05:41:34;8.50;;;6.27;;
3781;SDS011;6881;49.962;7.718;2022-08-21T05:44:00;9.70;;;6.87;;
3781;SDS011;6881;49.962;7.718;2022-08-21T05:46:25;6.57;;;5.97;;
3781;SDS011;6881;49.962;7.718;2022-08-21T05:48:50;8.43;;;6.20;;
3781;SDS011;6881;49.962;7.718;2022-08-21T05:51:16;6.83;;;6.10;;
3781;SDS011;6881;49.962;7.718;2022-08-21T05:53:42;7.70;;;5.97;;
3781;SDS011;6881;49.962;7.718;2022-08-21T05:56:08;8.53;;;5.83;;
3781;SDS011;6881;49.962;7.718;2022-08-21T05:58:34;6.93;;;5.80;;
3781;SDS011;6881;49.962;7.718;2022-08-21T06:01:00;6.63;;;5.60;;
3781;SDS011;6881;49.962;7.718;2022-08-21T06:03:28;7.47;;;5.70;;
3781;SDS011;6881;49.962;7.718;2022-08-21T06:05:55;6.60;;;5.90;;
3781;SDS011;6881;49.962;7.718;2022-08-21T06:08:21;11.70;;;5.87;;
3781;SDS011;6881;49.962;7.718;2022-08-21T06:10:47;7.53;;;6.27;;
3781;SDS011;6881;49.962;7.718;2022-08-21T06:13:15;7.10;;;5.93;;
3781;SDS011;6881;49.962;7.718;2022-08-21T06:15:42;6.97;;;5.63;;
3781;SDS011;6881;49.962;7.718;2022-08-21T06:18:07;5.60;;;5.00;;
3781;SDS011;6881;49.962;7.718;2022-08-21T06:20:33;9.10;;;5.87;;
3781;SDS011;6881;49.962;7.718;2022-08-21T06:22:58;10.00;;;5.60;;
3781;SDS011;6881;49.962;7.718;2022-08-21T06:25:24;7.60;;;5.73;;
3781;SDS011;6881;49.962;7.718;2022-08-21T06:27:50;6.30;;;4.77;;
3781;SDS011;6881;49.962;7.718;2022-08-21T06:30:16;6.20;;;5.47;;
3781;SDS011;6881;49.962;7.718;2022-08-21T06:32:42;5.53;;;5.03;;
3781;SDS011;6881;49.962;7.718;2022-08-21T06:35:07;6.50;;;5.33;;
3781;SDS011;6881;49.962;7.718;2022-08-21T06:37:34;5.80;;;5.30;;
3781;SDS011;6881;49.962;7.718;2022-08-21T06:39:59;8.50;;;5.73;;
3781;SDS011;6881;49.962;7.718;2022-08-21T06:42:24;7.70;;;5.90;;
3781;SDS011;6881;49.962;7.718;2022-08-21T06:44:52;7.60;;;5.30;;
3781;SDS011;6881;49.962;7.718;2022-08-21T06:47:17;8.30;;;5.40;;
3781;SDS011;6881;49.962;7.718;2022-08-21T06:49:42;6.80;;;5.93;;
3781;SDS011;6881;49.962;7.718;2022-08-21T06:52:09;13.10;;;6.20;;
3781;SDS011;6881;49.962;7.718;2022-08-21T06:54:35;5.60;;;4.93;;
3781;SDS011;6881;49.962;7.718;2022-08-21T06:57:00;6.30;;;5.27;;
3781;SDS011;6881;49.962;7.718;2022-08-21T06:59:26;6.43;;;5.53;;
3781;SDS011;6881;49.962;7.718;2022-08-21T07:01:51;8.30;;;5.00;;
3781;SDS011;6881;49.962;7.718;2022-08-21T07:04:16;6.80;;;6.13;;
3781;SDS011;6881;49.962;7.718;2022-08-21T07:06:42;6.77;;;4.50;;
3781;SDS011;6881;49.962;7.718;2022-08-21T07:09:07;5.70;;;5.20;;
3781;SDS011;6881;49.962;7.718;2022-08-21T07:11:33;6.57;;;5.90;;
3781;SDS011;6881;49.962;7.718;2022-08-21T07:14:00;7.30;;;4.33;;
3781;SDS011;6881;49.962;7.718;2022-08-21T07:16:25;7.20;;;4.27;;
3781;SDS011;6881;49.962;7.718;2022-08-21T07:18:51;8.07;;;6.57;;
3781;SDS011;6881;49.962;7.718;2022-08-21T07:21:16;10.40;;;5.53;;
3781;SDS011;6881;49.962;7.718;2022-08-21T07:23:44;8.90;;;4.63;;
3781;SDS011;6881;49.962;7.718;2022-08-21T07:26:12;7.57;;;4.83;;
3781;SDS011;6881;49.962;7.718;2022-08-21T07:28:37;5.13;;;4.53;;
3781;SDS011;6881;49.962;7.718;2022-08-21T07:31:03;9.70;;;4.97;;
3781;SDS011;6881;49.962;7.718;2022-08-21T07:33:30;5.60;;;5.10;;
3781;SDS011;6881;49.962;7.718;2022-08-21T07:35:57;6.67;;;5.50;;
3781;SDS011;6881;49.962;7.718;2022-08-21T07:38:23;6.60;;;4.93;;
3781;SDS011;6881;49.962;7.718;2022-08-21T07:40:48;7.70;;;4.00;;
3781;SDS011;6881;49.962;7.718;2022-08-21T07:43:15;6.50;;;4.03;;
3781;SDS011;6881;49.962;7.718;2022-08-21T07:45:44;5.57;;;3.50;;
3781;SDS011;6881;49.962;7.718;2022-08-21T07:48:10;5.70;;;4.10;;
3781;SDS011;6881;49.962;7.718;2022-08-21T07:50:35;5.53;;;2.90;;
3781;SDS011;6881;49.962;7.718;2022-08-21T07:53:01;6.47;;;3.67;;
3781;SDS011;6881;49.962;7.718;2022-08-21T07:55:27;7.10;;;3.80;;
3781;SDS011;6881;49.962;7.718;2022-08-21T07:57:52;9.13;;;3.57;;
3781;SDS011;6881;49.962;7.718;2022-08-21T08:00:19;5.17;;;4.30;;
3781;SDS011;6881;49.962;7.718;2022-08-21T08:02:46;7.40;;;3.83;;
3781;SDS011;6881;49.962;7.718;2022-08-21T08:05:15;8.83;;;5.20;;
3781;SDS011;6881;49.962;7.718;2022-08-21T08:07:42;5.90;;;4.50;;
3781;SDS011;6881;49.962;7.718;2022-08-21T08:10:07;5.23;;;3.93;;
3781;SDS011;6881;49.962;7.718;2022-08-21T08:12:34;4.87;;;3.50;;
3781;SDS011;6881;49.962;7.718;2022-08-21T08:15:00;6.00;;;4.57;;
3781;SDS011;6881;49.962;7.718;2022-08-21T08:17:26;8.03;;;4.50;;
3781;SDS011;6881;49.962;7.718;2022-08-21T08:19:52;4.33;;;3.60;;
3781;SDS011;6881;49.962;7.718;2022-08-21T08:22:18;7.43;;;3.97;;
3781;SDS011;6881;49.962;7.718;2022-08-21T08:24:46;8.90;;;3.50;;
3781;SDS011;6881;49.962;7.718;2022-08-21T08:27:11;5.80;;;3.77;;
3781;SDS011;6881;49.962;7.718;2022-08-21T08:29:37;5.50;;;4.30;;
3781;SDS011;6881;49.962;7.718;2022-08-21T08:32:03;6.10;;;4.13;;
3781;SDS011;6881;49.962;7.718;2022-08-21T08:34:29;3.10;;;2.80;;
3781;SDS011;6881;49.962;7.718;2022-08-21T08:36:55;5.80;;;3.63;;
3781;SDS011;6881;49.962;7.718;2022-08-21T08:39:22;6.00;;;3.23;;
3781;SDS011;6881;49.962;7.718;2022-08-21T08:41:48;5.03;;;2.93;;
3781;SDS011;6881;49.962;7.718;2022-08-21T08:44:16;3.37;;;2.87;;
3781;SDS011;6881;49.962;7.718;2022-08-21T08:46:43;3.10;;;2.80;;
3781;SDS011;6881;49.962;7.718;2022-08-21T08:49:11;5.47;;;3.20;;
3781;SDS011;6881;49.962;7.718;2022-08-21T08:51:52;6.43;;;3.57;;
3781;SDS011;6881;49.962;7.718;2022-08-21T08:54:26;4.97;;;2.87;;
3781;SDS011;6881;49.962;7.718;2022-08-21T08:56:57;4.50;;;3.30;;
3781;SDS011;6881;49.962;7.718;2022-08-21T08:59:29;4.30;;;3.50;;
3781;SDS011;6881;49.962;7.718;2022-08-21T09:02:03;6.97;;;3.70;;
3781;SDS011;6881;49.962;7.718;2022-08-21T09:04:30;10.13;;;3.80;;
3781;SDS011;6881;49.962;7.718;2022-08-21T09:26:08;4.43;;;2.83;;
3781;SDS011;6881;49.962;7.718;2022-08-21T09:28:37;4.60;;;3.33;;
3781;SDS011;6881;49.962;7.718;2022-08-21T09:31:05;6.30;;;2.90;;
3781;SDS011;6881;49.962;7.718;2022-08-21T09:33:32;4.70;;;3.27;;
3781;SDS011;6881;49.962;7.718;2022-08-21T09:35:57;5.17;;;3.27;;
3781;SDS011;6881;49.962;7.718;2022-08-21T09:38:33;4.77;;;3.43;;
3781;SDS011;6881;49.962;7.718;2022-08-21T09:41:08;4.50;;;3.20;;
3781;SDS011;6881;49.962;7.718;2022-08-21T09:43:36;6.00;;;3.57;;
3781;SDS011;6881;49.962;7.718;2022-08-21T09:48:27;3.07;;;2.40;;
3781;SDS011;6881;49.962;7.718;2022-08-21T09:51:05;2.73;;;2.40;;
3781;SDS011;6881;49.962;7.718;2022-08-21T09:53:32;2.93;;;2.63;;
3781;SDS011;6881;49.962;7.718;2022-08-21T09:56:05;4.60;;;3.40;;
3781;SDS011;6881;49.962;7.718;2022-08-21T09:58:58;5.27;;;2.93;;
3781;SDS011;6881;49.962;7.718;2022-08-21T10:01:24;4.40;;;3.13;;
3781;SDS011;6881;49.962;7.718;2022-08-21T10:06:49;3.63;;;3.00;;
3781;SDS011;6881;49.962;7.718;2022-08-21T10:09:16;4.73;;;2.90;;
3781;SDS011;6881;49.962;7.718;2022-08-21T10:11:47;4.40;;;3.00;;
3781;SDS011;6881;49.962;7.718;2022-08-21T10:14:30;4.30;;;3.00;;
3781;SDS011;6881;49.962;7.718;2022-08-21T10:20:04;2.90;;;2.57;;
3781;SDS011;6881;49.962;7.718;2022-08-21T10:22:34;3.00;;;2.70;;
3781;SDS011;6881;49.962;7.718;2022-08-21T10:27:56;4.00;;;2.60;;
3781;SDS011;6881;49.962;7.718;2022-08-21T10:42:04;4.20;;;2.70;;
3781;SDS011;6881;49.962;7.718;2022-08-21T10:44:54;3.50;;;3.10;;
3781;SDS011;6881;49.962;7.718;2022-08-21T10:55:15;5.07;;;2.90;;
3781;SDS011;6881;49.962;7.718;2022-08-21T10:57:47;6.10;;;3.63;;
3781;SDS011;6881;49.962;7.718;2022-08-21T11:00:17;4.77;;;2.93;;
3781;SDS011;6881;49.962;7.718;2022-08-21T11:02:51;4.77;;;3.50;;
3781;SDS011;6881;49.962;7.718;2022-08-21T11:05:24;4.50;;;2.90;;
3781;SDS011;6881;49.962;7.718;2022-08-21T11:07:53;3.83;;;3.20;;
3781;SDS011;6881;49.962;7.718;2022-08-21T11:12:54;2.93;;;2.53;;
3781;SDS011;6881;49.962;7.718;2022-08-21T11:18:09;5.20;;;2.77;;
3781;SDS011;6881;49.962;7.718;2022-08-21T11:20:42;3.43;;;2.73;;
3781;SDS011;6881;49.962;7.718;2022-08-21T11:23:17;5.13;;;3.07;;
3781;SDS011;6881;49.962;7.718;2022-08-21T11:25:47;3.30;;;2.80;;
3781;SDS011;6881;49.962;7.718;2022-08-21T11:28:30;3.10;;;2.80;;
3781;SDS011;6881;49.962;7.718;2022-08-21T11:34:45;4.67;;;3.13;;
3781;SDS011;6881;49.962;7.718;2022-08-21T11:42:22;3.33;;;2.83;;
3781;SDS011;6881;49.962;7.718;2022-08-21T11:50:29;3.60;;;2.90;;
3781;SDS011;6881;49.962;7.718;2022-08-21T12:00:48;4.17;;;3.33;;
3781;SDS011;6881;49.962;7.718;2022-08-21T12:03:28;4.03;;;2.30;;
3781;SDS011;6881;49.962;7.718;2022-08-21T12:06:30;5.10;;;2.50;;
3781;SDS011;6881;49.962;7.718;2022-08-21T12:09:08;3.80;;;2.43;;
3781;SDS011;6881;49.962;7.718;2022-08-21T12:14:45;3.83;;;2.43;;
3781;SDS011;6881;49.962;7.718;2022-08-21T12:17:20;2.73;;;2.23;;
3781;SDS011;6881;49.962;7.718;2022-08-21T12:20:00;5.87;;;3.60;;
3781;SDS011;6881;49.962;7.718;2022-08-21T12:22:40;3.30;;;2.70;;
3781;SDS011;6881;49.962;7.718;2022-08-21T12:25:07;3.33;;;2.37;;
3781;SDS011;6881;49.962;7.718;2022-08-21T12:27:52;4.63;;;2.23;;
3781;SDS011;6881;49.962;7.718;2022-08-21T12:35:24;3.37;;;2.23;;
3781;SDS011;6881;49.962;7.718;2022-08-21T12:37:57;3.23;;;2.20;;
3781;SDS011;6881;49.962;7.718;2022-08-21T12:40:37;3.30;;;2.00;;
3781;SDS011;6881;49.962;7.718;2022-08-21T12:43:05;4.40;;;2.37;;
3781;SDS011;6881;49.962;7.718;2022-08-21T12:45:42;2.60;;;2.00;;
3781;SDS011;6881;49.962;7.718;2022-08-21T12:48:21;6.67;;;2.57;;
3781;SDS011;6881;49.962;7.718;2022-08-21T12:50:57;4.27;;;2.37;;
3781;SDS011;6881;49.962;7.718;2022-08-21T12:53:49;3.90;;;2.60;;
3781;SDS011;6881;49.962;7.718;2022-08-21T12:56:15;2.03;;;1.60;;
3781;SDS011;6881;49.962;7.718;2022-08-21T12:58:46;4.50;;;2.40;;
3781;SDS011;6881;49.962;7.718;2022-08-21T13:01:32;3.10;;;2.07;;
3781;SDS011;6881;49.962;7.718;2022-08-21T13:04:10;4.10;;;3.50;;
3781;SDS011;6881;49.962;7.718;2022-08-21T13:06:42;3.43;;;2.00;;
3781;SDS011;6881;49.962;7.718;2022-08-21T13:09:15;3.00;;;2.10;;
3781;SDS011;6881;49.962;7.718;2022-08-21T13:11:43;3.57;;;2.27;;
3781;SDS011;6881;49.962;7.718;2022-08-21T13:14:14;2.37;;;1.80;;
3781;SDS011;6881;49.962;7.718;2022-08-21T13:16:57;2.93;;;2.10;;
3781;SDS011;6881;49.962;7.718;2022-08-21T13:19:24;3.03;;;2.60;;
3781;SDS011;6881;49.962;7.718;2022-08-21T13:21:50;4.70;;;2.40;;
3781;SDS011;6881;49.962;7.718;2022-08-21T13:26:47;2.47;;;2.13;;
3781;SDS011;6881;49.962;7.718;2022-08-21T13:29:14;1.90;;;1.77;;
3781;SDS011;6881;49.962;7.718;2022-08-21T13:31:46;2.53;;;2.20;;
3781;SDS011;6881;49.962;7.718;2022-08-21T13:34:13;2.30;;;2.07;;
3781;SDS011;6881;49.962;7.718;2022-08-21T13:36:40;2.63;;;2.43;;
3781;SDS011;6881;49.962;7.718;2022-08-21T13:39:07;2.33;;;1.77;;
3781;SDS011;6881;49.962;7.718;2022-08-21T13:41:35;2.57;;;1.60;;
3781;SDS011;6881;49.962;7.718;2022-08-21T13:44:06;1.97;;;1.77;;
3781;SDS011;6881;49.962;7.718;2022-08-21T13:46:43;5.20;;;2.63;;
3781;SDS011;6881;49.962;7.718;2022-08-21T13:49:09;2.00;;;1.63;;
3781;SDS011;6881;49.962;7.718;2022-08-21T13:51:35;2.53;;;2.10;;
3781;SDS011;6881;49.962;7.718;2022-08-21T13:54:01;2.77;;;2.00;;
3781;SDS011;6881;49.962;7.718;2022-08-21T13:56:42;2.50;;;2.30;;
3781;SDS011;6881;49.962;7.718;2022-08-21T13:59:09;2.90;;;1.93;;
3781;SDS011;6881;49.962;7.718;2022-08-21T14:01:39;2.60;;;2.10;;
3781;SDS011;6881;49.962;7.718;2022-08-21T14:06:50;1.83;;;1.63;;
3781;SDS011;6881;49.962;7.718;2022-08-21T14:09:28;3.67;;;2.00;;
3781;SDS011;6881;49.962;7.718;2022-08-21T14:11:59;5.03;;;2.43;;
3781;SDS011;6881;49.962;7.718;2022-08-21T14:14:30;5.43;;;2.20;;
3781;SDS011;6881;49.962;7.718;2022-08-21T14:16:59;1.90;;;1.50;;
3781;SDS011;6881;49.962;7.718;2022-08-21T14:19:37;3.20;;;1.97;;
3781;SDS011;6881;49.962;7.718;2022-08-21T14:25:27;4.60;;;2.77;;
3781;SDS011;6881;49.962;7.718;2022-08-21T14:27:50;4.80;;;2.33;;
3781;SDS011;6881;49.962;7.718;2022-08-21T14:30:19;3.90;;;3.33;;
3781;SDS011;6881;49.962;7.718;2022-08-21T14:32:46;3.00;;;1.97;;
3781;SDS011;6881;49.962;7.718;2022-08-21T14:35:13;3.33;;;2.37;;
3781;SDS011;6881;49.962;7.718;2022-08-21T14:37:41;3.90;;;2.57;;
3781;SDS011;6881;49.962;7.718;2022-08-21T14:40:07;2.60;;;1.87;;
3781;SDS011;6881;49.962;7.718;2022-08-21T14:42:33;2.50;;;1.53;;
3781;SDS011;6881;49.962;7.718;2022-08-21T14:45:00;3.90;;;2.30;;
3781;SDS011;6881;49.962;7.718;2022-08-21T14:47:28;2.90;;;2.27;;
3781;SDS011;6881;49.962;7.718;2022-08-21T14:49:53;2.40;;;1.80;;
3781;SDS011;6881;49.962;7.718;2022-08-21T14:52:19;3.70;;;2.40;;
3781;SDS011;6881;49.962;7.718;2022-08-21T14:54:45;3.13;;;2.57;;
3781;SDS011;6881;49.962;7.718;2022-08-21T14:57:11;3.47;;;2.03;;
3781;SDS011;6881;49.962;7.718;2022-08-21T14:59:40;3.40;;;2.40;;
3781;SDS011;6881;49.962;7.718;2022-08-21T15:02:06;3.17;;;2.10;;
3781;SDS011;6881;49.962;7.718;2022-08-21T15:04:32;3.27;;;2.00;;
3781;SDS011;6881;49.962;7.718;2022-08-21T15:06:58;2.47;;;1.83;;
3781;SDS011;6881;49.962;7.718;2022-08-21T15:09:23;2.47;;;2.27;;
3781;SDS011;6881;49.962;7.718;2022-08-21T15:11:49;2.90;;;2.10;;
3781;SDS011;6881;49.962;7.718;2022-08-21T15:14:20;3.23;;;2.37;;
3781;SDS011;6881;49.962;7.718;2022-08-21T15:16:47;5.03;;;2.20;;
3781;SDS011;6881;49.962;7.718;2022-08-21T15:19:13;2.63;;;1.87;;
3781;SDS011;6881;49.962;7.718;2022-08-21T15:21:38;4.43;;;2.10;;
3781;SDS011;6881;49.962;7.718;2022-08-21T15:24:03;4.87;;;2.37;;
3781;SDS011;6881;49.962;7.718;2022-08-21T15:26:29;2.40;;;1.57;;
3781;SDS011;6881;49.962;7.718;2022-08-21T15:28:54;3.53;;;2.37;;
3781;SDS011;6881;49.962;7.718;2022-08-21T15:31:19;3.87;;;1.93;;
3781;SDS011;6881;49.962;7.718;2022-08-21T15:33:45;2.30;;;2.10;;
3781;SDS011;6881;49.962;7.718;2022-08-21T15:36:10;2.00;;;1.80;;
3781;SDS011;6881;49.962;7.718;2022-08-21T15:38:36;2.67;;;2.00;;
3781;SDS011;6881;49.962;7.718;2022-08-21T15:41:02;3.17;;;2.20;;
3781;SDS011;6881;49.962;7.718;2022-08-21T15:43:29;3.27;;;2.47;;
3781;SDS011;6881;49.962;7.718;2022-08-21T15:45:57;7.30;;;3.00;;
3781;SDS011;6881;49.962;7.718;2022-08-21T15:48:23;4.97;;;2.07;;
3781;SDS011;6881;49.962;7.718;2022-08-21T15:50:49;3.93;;;2.17;;
3781;SDS011;6881;49.962;7.718;2022-08-21T15:53:14;3.33;;;1.80;;
3781;SDS011;6881;49.962;7.718;2022-08-21T15:55:40;3.57;;;2.00;;
3781;SDS011;6881;49.962;7.718;2022-08-21T15:58:06;3.07;;;2.30;;
3781;SDS011;6881;49.962;7.718;2022-08-21T16:00:32;3.73;;;1.97;;
3781;SDS011;6881;49.962;7.718;2022-08-21T16:02:59;3.57;;;2.50;;
3781;SDS011;6881;49.962;7.718;2022-08-21T16:05:25;2.63;;;1.80;;
3781;SDS011;6881;49.962;7.718;2022-08-21T16:07:51;3.37;;;1.93;;
3781;SDS011;6881;49.962;7.718;2022-08-21T16:10:18;2.17;;;1.87;;
3781;SDS011;6881;49.962;7.718;2022-08-21T16:12:49;5.50;;;2.50;;
3781;SDS011;6881;49.962;7.718;2022-08-21T16:15:16;2.87;;;1.57;;
3781;SDS011;6881;49.962;7.718;2022-08-21T16:17:45;1.93;;;1.53;;
3781;SDS011;6881;49.962;7.718;2022-08-21T16:20:17;3.10;;;1.90;;
3781;SDS011;6881;49.962;7.718;2022-08-21T16:22:44;3.00;;;2.03;;
3781;SDS011;6881;49.962;7.718;2022-08-21T16:25:10;2.33;;;2.13;;
3781;SDS011;6881;49.962;7.718;2022-08-21T16:27:36;1.97;;;1.80;;
3781;SDS011;6881;49.962;7.718;2022-08-21T16:30:03;3.70;;;1.90;;
3781;SDS011;6881;49.962;7.718;2022-08-21T16:32:29;4.10;;;1.63;;
3781;SDS011;6881;49.962;7.718;2022-08-21T16:34:55;3.53;;;2.10;;
3781;SDS011;6881;49.962;7.718;2022-08-21T16:37:20;3.03;;;1.87;;
3781;SDS011;6881;49.962;7.718;2022-08-21T16:39:46;2.40;;;1.90;;
3781;SDS011;6881;49.962;7.718;2022-08-21T16:42:12;3.87;;;2.23;;
3781;SDS011;6881;49.962;7.718;2022-08-21T16:44:40;3.10;;;1.83;;
3781;SDS011;6881;49.962;7.718;2022-08-21T16:47:06;2.43;;;1.63;;
3781;SDS011;6881;49.962;7.718;2022-08-21T16:49:32;3.00;;;1.50;;
3781;SDS011;6881;49.962;7.718;2022-08-21T16:51:57;4.50;;;2.63;;
3781;SDS011;6881;49.962;7.718;2022-08-21T16:54:23;3.40;;;2.00;;